Time;durP1;ratioP1;P1;durP2;ratioP2;P2;SDS_P1;SDS_P2;PMS_P1;PMS_P2;Temp;Humidity;BMP_temperature;BMP_pressure;BME280_temperature;BME280_humidity;BME280_pressure;Samples;Min_cycle;Max_cycle;Signal;HPM_P1;HPM_P2
2022/04/14 00:00:19;;;;;;;3.20;2.90;;;22.30;38.70;;;;;;5086701;28;46921;-27
2022/04/14 00:02:46;;;;;;;4.82;3.08;;;22.30;38.80;;;;;;5086101;28;48224;-28
2022/04/14 00:05:12;;;;;;;3.13;2.63;;;22.30;38.80;;;;;;5086332;28;46751;-27
2022/04/14 00:07:39;;;;;;;3.22;2.92;;;22.20;38.90;;;;;;5086267;28;46799;-28
2022/04/14 00:10:06;;;;;;;3.15;2.83;;;22.20;38.80;;;;;;5086484;28;46897;-28
2022/04/14 00:12:33;;;;;;;3.33;2.90;;;22.20;38.80;;;;;;5086067;28;46868;-27
2022/04/14 00:15:01;;;;;;;4.45;2.83;;;22.20;38.90;;;;;;5086020;28;46989;-15
2022/04/14 00:17:29;;;;;;;3.72;2.85;;;22.20;38.90;;;;;;5086153;28;46791;-15
2022/04/14 00:19:55;;;;;;;3.33;2.72;;;22.10;38.80;;;;;;5085475;27;46894;-15
2022/04/14 00:22:22;;;;;;;3.72;3.10;;;22.10;38.80;;;;;;5085926;28;48793;-28
2022/04/14 00:24:49;;;;;;;3.20;2.90;;;22.10;39.00;;;;;;5086097;28;46972;-28
2022/04/14 00:27:18;;;;;;;2.85;2.55;;;22.10;38.90;;;;;;5085863;28;46874;-28
2022/04/14 00:29:44;;;;;;;3.58;3.13;;;22.10;38.90;;;;;;5085907;28;46829;-28
2022/04/14 00:32:12;;;;;;;3.08;2.60;;;22.10;39.00;;;;;;5085743;28;47991;-14
2022/04/14 00:34:39;;;;;;;3.03;2.72;;;22.10;38.90;;;;;;5085866;28;46996;-28
2022/04/14 00:37:07;;;;;;;3.05;2.55;;;22.00;39.10;;;;;;5085650;28;47022;-28
2022/04/14 00:39:33;;;;;;;3.58;2.88;;;22.00;39.10;;;;;;5086263;28;47353;-28
2022/04/14 00:42:00;;;;;;;3.17;2.38;;;21.90;39.10;;;;;;5085717;28;48001;-28
2022/04/14 00:44:27;;;;;;;3.13;2.67;;;22.00;39.10;;;;;;5085616;28;46774;-27
2022/04/14 00:46:53;;;;;;;3.00;2.70;;;21.90;39.10;;;;;;5085597;28;46921;-28
2022/04/14 00:49:21;;;;;;;4.43;2.72;;;21.90;39.20;;;;;;5086022;28;47064;-15
2022/04/14 00:51:48;;;;;;;3.17;2.55;;;21.90;39.20;;;;;;5085746;28;47493;-15
2022/04/14 00:54:15;;;;;;;3.83;2.67;;;21.90;39.20;;;;;;5085180;28;46824;-14
2022/04/14 00:56:41;;;;;;;2.42;2.15;;;21.90;39.30;;;;;;5085231;28;46806;-14
2022/04/14 00:59:08;;;;;;;3.47;2.90;;;21.80;39.20;;;;;;5085827;28;46904;-15
2022/04/14 01:01:35;;;;;;;2.50;2.22;;;21.80;39.80;;;;;;5085336;28;47064;-27
2022/04/14 01:04:01;;;;;;;4.18;2.78;;;21.80;39.30;;;;;;5085256;28;46894;-27
2022/04/14 01:06:30;;;;;;;3.35;3.05;;;21.80;39.30;;;;;;5085759;28;47036;-15
2022/04/14 01:11:37;;;;;;;3.63;2.90;;;21.70;39.30;;;;;;5081934;28;47713;-28
2022/04/14 01:14:04;;;;;;;2.60;2.38;;;21.70;39.40;;;;;;5085204;28;46870;-27
2022/04/14 01:16:31;;;;;;;5.25;2.67;;;21.70;39.30;;;;;;5085023;28;46813;-15
2022/04/14 01:18:57;;;;;;;3.45;2.70;;;21.70;39.30;;;;;;5085563;28;47307;-15
2022/04/14 01:21:24;;;;;;;2.53;2.08;;;21.70;40.00;;;;;;5085322;28;46997;-15
2022/04/14 01:23:52;;;;;;;3.83;2.47;;;21.60;39.40;;;;;;5085246;28;47168;-15
2022/04/14 01:26:19;;;;;;;3.67;2.40;;;21.60;39.40;;;;;;5085239;28;46899;-28
2022/04/14 01:28:46;;;;;;;2.50;2.30;;;21.60;39.50;;;;;;5085531;28;47118;-28
2022/04/14 01:31:12;;;;;;;2.55;2.20;;;21.60;39.50;;;;;;5085072;28;48935;-16
2022/04/14 01:33:39;;;;;;;2.83;2.40;;;21.60;39.50;;;;;;5088932;28;47230;-15
2022/04/14 01:36:06;;;;;;;3.17;2.40;;;21.60;39.50;;;;;;5088771;28;46945;-28
2022/04/14 01:38:33;;;;;;;3.20;2.53;;;21.50;39.50;;;;;;5088930;28;47307;-27
2022/04/14 01:41:01;;;;;;;3.78;2.45;;;21.50;39.60;;;;;;5088380;28;47839;-15
2022/04/14 01:43:28;;;;;;;2.55;2.28;;;21.50;39.60;;;;;;5088230;28;46807;-15
2022/04/14 01:45:54;;;;;;;4.10;2.65;;;21.50;39.60;;;;;;5088700;28;46906;-27
2022/04/14 01:48:21;;;;;;;4.22;2.20;;;21.50;39.70;;;;;;5088502;28;47294;-28
2022/04/14 01:50:48;;;;;;;2.38;2.17;;;21.50;39.70;;;;;;5088480;28;47072;-28
2022/04/14 01:53:14;;;;;;;4.18;2.47;;;21.40;39.70;;;;;;5087983;28;47231;-14
2022/04/14 01:55:41;;;;;;;2.53;2.15;;;21.40;39.70;;;;;;5088255;28;46943;-15
2022/04/14 01:58:09;;;;;;;3.25;2.28;;;21.40;39.80;;;;;;5088641;28;46748;-28
2022/04/14 02:00:36;;;;;;;2.95;2.33;;;21.40;39.70;;;;;;5088338;28;49087;-27
2022/04/14 02:03:02;;;;;;;2.00;1.77;;;21.40;39.80;;;;;;5088228;28;47288;-15
2022/04/14 02:05:29;;;;;;;2.35;2.15;;;21.40;39.70;;;;;;5088508;28;46895;-15
2022/04/14 02:07:56;;;;;;;2.63;2.08;;;21.40;39.70;;;;;;5088106;28;46838;-27
2022/04/14 02:10:22;;;;;;;2.58;2.10;;;21.40;39.80;;;;;;5087976;28;49065;-14
2022/04/14 02:12:49;;;;;;;2.35;2.00;;;21.30;39.70;;;;;;5088057;28;46794;-28
2022/04/14 02:15:18;;;;;;;2.70;2.40;;;21.30;39.80;;;;;;5088243;28;46809;-27
2022/04/14 02:17:45;;;;;;;3.28;2.17;;;21.30;39.90;;;;;;5087818;28;46932;-28
2022/04/14 02:20:12;;;;;;;2.88;1.83;;;21.30;39.80;;;;;;5088004;28;49143;-27
2022/04/14 02:22:39;;;;;;;2.15;1.88;;;21.30;39.80;;;;;;5087569;28;46898;-28
2022/04/14 02:25:07;;;;;;;3.03;2.30;;;21.30;39.80;;;;;;5087716;28;46897;-28
2022/04/14 02:27:34;;;;;;;2.92;2.20;;;21.30;40.00;;;;;;5087791;28;46824;-27
2022/04/14 02:30:00;;;;;;;2.67;1.80;;;21.20;39.80;;;;;;5087886;28;48140;-15
2022/04/14 02:32:28;;;;;;;2.45;2.10;;;21.20;39.80;;;;;;5087917;28;47285;-14
2022/04/14 02:34:55;;;;;;;2.65;2.03;;;21.20;39.90;;;;;;5088036;28;46379;-27
2022/04/14 02:37:22;;;;;;;2.80;1.90;;;21.20;40.10;;;;;;5087665;28;46835;-27
2022/04/14 02:39:48;;;;;;;2.17;1.98;;;21.20;40.00;;;;;;5087891;28;47921;-15
2022/04/14 02:42:15;;;;;;;2.28;1.95;;;21.10;40.10;;;;;;5087488;28;46858;-14
2022/04/14 02:44:42;;;;;;;1.88;1.77;;;21.10;40.00;;;;;;5086910;27;46958;-15
2022/04/14 02:47:08;;;;;;;4.75;2.03;;;21.10;40.10;;;;;;5087453;28;46881;-15
2022/04/14 02:49:36;;;;;;;3.00;2.03;;;21.10;40.00;;;;;;5087409;28;47990;-15
2022/04/14 02:52:04;;;;;;;2.60;2.05;;;21.10;40.10;;;;;;5087195;28;47100;-28
2022/04/14 02:54:37;;;;;;;2.55;1.90;;;21.10;40.20;;;;;;5087021;28;48168;-15
2022/04/14 02:57:04;;;;;;;3.25;1.92;;;21.10;40.00;;;;;;5087438;28;46812;-15
2022/04/14 02:59:31;;;;;;;1.88;1.67;;;21.00;40.00;;;;;;5087133;28;48117;-27
2022/04/14 03:01:57;;;;;;;2.40;1.90;;;21.00;40.10;;;;;;5087297;28;47289;-28
2022/04/14 03:04:24;;;;;;;2.70;2.05;;;21.00;40.10;;;;;;5087438;28;46915;-15
2022/04/14 03:06:53;;;;;;;2.30;1.90;;;21.00;40.00;;;;;;5087032;28;47059;-14
2022/04/14 03:09:20;;;;;;;2.53;2.05;;;21.00;40.10;;;;;;5087151;28;47072;-14
2022/04/14 03:11:46;;;;;;;2.28;1.90;;;21.00;40.20;;;;;;5086674;28;47275;-15
2022/04/14 03:14:13;;;;;;;3.20;1.95;;;21.00;40.20;;;;;;5086929;28;46816;-14
2022/04/14 03:16:40;;;;;;;2.30;1.90;;;20.90;40.30;;;;;;5052859;28;47316;-15
2022/04/14 03:19:06;;;;;;;1.92;1.73;;;20.90;40.20;;;;;;5046590;28;47912;-15
2022/04/14 03:21:33;;;;;;;3.35;1.80;;;20.90;40.20;;;;;;5046058;28;46892;-14
2022/04/14 03:24:01;;;;;;;2.55;2.13;;;20.90;40.30;;;;;;5046391;28;46783;-28
2022/04/14 03:26:28;;;;;;;2.40;1.95;;;20.90;40.30;;;;;;5046603;28;46887;-28
2022/04/14 03:28:55;;;;;;;3.40;2.00;;;20.90;40.30;;;;;;5046412;28;48058;-28
2022/04/14 03:31:21;;;;;;;2.13;1.80;;;20.90;40.50;;;;;;5046049;28;46924;-15
2022/04/14 03:33:48;;;;;;;1.95;1.73;;;20.90;40.30;;;;;;5046699;28;46981;-21
2022/04/14 03:36:15;;;;;;;1.83;1.52;;;20.90;40.40;;;;;;5046630;28;46988;-27
2022/04/14 03:38:41;;;;;;;1.90;1.80;;;20.90;40.30;;;;;;5046039;28;48156;-27
2022/04/14 03:41:09;;;;;;;2.42;1.65;;;20.90;40.30;;;;;;5046040;28;47591;-15
2022/04/14 03:43:36;;;;;;;2.10;1.77;;;20.90;40.40;;;;;;5046228;28;46815;-28
2022/04/14 03:46:03;;;;;;;2.35;1.77;;;20.90;40.30;;;;;;5046456;28;46892;-27
2022/04/14 03:48:30;;;;;;;2.60;1.70;;;20.80;40.40;;;;;;5045926;28;47005;-27
2022/04/14 03:50:57;;;;;;;3.25;2.20;;;20.80;40.40;;;;;;5045836;28;47453;-15
2022/04/14 03:53:24;;;;;;;2.95;2.20;;;20.90;40.30;;;;;;5045951;28;46885;-15
2022/04/14 03:55:51;;;;;;;1.73;1.60;;;20.90;40.30;;;;;;5049147;28;47581;-14
2022/04/14 03:58:19;;;;;;;1.77;1.67;;;20.80;40.40;;;;;;5065698;28;49206;-15
2022/04/14 04:00:46;;;;;;;2.00;1.80;;;20.80;40.40;;;;;;5066252;28;46975;-28
2022/04/14 04:03:13;;;;;;;3.67;1.83;;;20.80;40.40;;;;;;5066135;28;46815;-15
2022/04/14 04:05:39;;;;;;;2.17;1.90;;;20.80;40.40;;;;;;5066241;28;47296;-15
2022/04/14 04:08:07;;;;;;;2.50;1.80;;;20.80;40.50;;;;;;5065783;28;47167;-14
2022/04/14 04:10:33;;;;;;;2.67;1.90;;;20.70;40.40;;;;;;5065941;28;47195;-15
2022/04/14 04:13:00;;;;;;;1.73;1.60;;;20.70;40.50;;;;;;5065965;28;46910;-15
2022/04/14 04:15:28;;;;;;;2.78;1.83;;;20.70;40.50;;;;;;5066197;28;47109;-14
2022/04/14 04:17:55;;;;;;;1.95;1.85;;;20.70;40.50;;;;;;5065579;28;47073;-28
2022/04/14 04:20:22;;;;;;;2.03;1.60;;;20.70;40.50;;;;;;5065736;28;47043;-15
2022/04/14 04:22:49;;;;;;;2.38;2.17;;;20.70;40.50;;;;;;5065475;28;47072;-28
2022/04/14 04:25:15;;;;;;;1.98;1.77;;;20.60;40.60;;;;;;5066002;28;46853;-27
2022/04/14 04:27:42;;;;;;;2.35;1.55;;;20.60;40.60;;;;;;5065468;28;48146;-28
2022/04/14 04:30:09;;;;;;;2.70;2.13;;;20.60;40.60;;;;;;5065444;28;46793;-14
2022/04/14 04:32:39;;;;;;;1.75;1.65;;;20.60;40.60;;;;;;5065162;28;46991;-28
2022/04/14 04:35:06;;;;;;;1.60;1.50;;;20.60;40.50;;;;;;5065715;28;46850;-28
2022/04/14 04:37:33;;;;;;;1.90;1.70;;;20.60;40.60;;;;;;5065332;28;48124;-27
2022/04/14 04:40:00;;;;;;;1.60;1.50;;;20.60;40.60;;;;;;5065519;28;47306;-28
2022/04/14 04:42:27;;;;;;;2.50;1.77;;;20.60;40.70;;;;;;5065371;28;46911;-15
2022/04/14 04:44:53;;;;;;;2.92;1.98;;;20.50;40.70;;;;;;5065733;28;46895;-27
2022/04/14 04:47:21;;;;;;;2.35;1.90;;;20.50;40.70;;;;;;5065043;28;48108;-14
2022/04/14 04:49:49;;;;;;;4.32;1.80;;;20.50;40.70;;;;;;5065084;28;47100;-15
2022/04/14 04:52:15;;;;;;;2.72;1.60;;;20.50;40.70;;;;;;5065324;28;46809;-14
2022/04/14 04:54:42;;;;;;;1.80;1.70;;;20.50;40.70;;;;;;5065452;28;47195;-15
2022/04/14 04:57:09;;;;;;;2.30;1.92;;;20.40;40.80;;;;;;5065009;28;48874;-14
2022/04/14 04:59:36;;;;;;;2.13;1.90;;;20.40;40.80;;;;;;5065494;28;47573;-14
2022/04/14 05:02:03;;;;;;;2.42;1.60;;;20.40;40.90;;;;;;5065252;28;46805;-15
2022/04/14 05:04:29;;;;;;;2.00;1.80;;;20.40;40.90;;;;;;5065585;28;46823;-15
2022/04/14 05:06:57;;;;;;;2.20;1.73;;;20.40;40.80;;;;;;5067736;28;49095;-27
2022/04/14 05:09:25;;;;;;;3.95;1.80;;;20.40;41.00;;;;;;5071982;28;46913;-27
2022/04/14 05:11:51;;;;;;;2.03;1.77;;;20.40;41.00;;;;;;5071492;28;47022;-14
2022/04/14 05:14:18;;;;;;;2.15;1.60;;;20.40;40.90;;;;;;5071899;28;46884;-27
2022/04/14 05:16:45;;;;;;;2.15;1.83;;;20.40;41.00;;;;;;5071298;28;49082;-14
2022/04/14 05:19:11;;;;;;;1.70;1.55;;;20.40;41.00;;;;;;5071549;28;46902;-14
2022/04/14 05:21:38;;;;;;;3.20;2.00;;;20.30;40.90;;;;;;5071670;28;46916;-14
2022/04/14 05:24:07;;;;;;;1.70;1.60;;;20.30;41.00;;;;;;5072050;28;46855;-28
2022/04/14 05:26:34;;;;;;;2.17;1.70;;;20.30;40.90;;;;;;5071400;28;48224;-15
2022/04/14 05:29:01;;;;;;;1.95;1.67;;;20.30;40.90;;;;;;5071137;28;46887;-15
2022/04/14 05:31:28;;;;;;;1.65;1.48;;;20.30;41.00;;;;;;5071531;28;47279;-28
2022/04/14 05:33:55;;;;;;;2.67;1.65;;;20.30;41.00;;;;;;5071508;28;46899;-27
2022/04/14 05:36:21;;;;;;;3.40;1.85;;;20.30;40.90;;;;;;5071506;28;49121;-27
2022/04/14 05:38:48;;;;;;;1.98;1.70;;;20.30;41.00;;;;;;5071533;28;46878;-15
2022/04/14 05:41:17;;;;;;;2.58;1.63;;;20.30;40.90;;;;;;5071131;28;46825;-15
2022/04/14 05:43:43;;;;;;;1.98;1.50;;;20.30;40.90;;;;;;5071477;28;46956;-27
2022/04/14 05:46:10;;;;;;;1.50;1.40;;;20.30;40.90;;;;;;5071408;28;48860;-27
2022/04/14 05:48:37;;;;;;;1.85;1.60;;;20.30;40.90;;;;;;5071269;28;46989;-15
2022/04/14 05:51:04;;;;;;;2.53;1.77;;;20.30;40.70;;;;;;5070799;28;46830;-15
2022/04/14 05:53:30;;;;;;;1.52;1.42;;;20.30;40.80;;;;;;5071427;28;47098;-28
2022/04/14 05:55:57;;;;;;;3.13;1.80;;;20.30;40.90;;;;;;5070885;28;49189;-27
2022/04/14 05:58:25;;;;;;;2.03;1.60;;;20.30;40.80;;;;;;5071062;28;47297;-28
2022/04/14 06:00:52;;;;;;;1.50;1.40;;;20.20;40.70;;;;;;5071346;28;46826;-14
2022/04/14 06:03:19;;;;;;;1.75;1.40;;;20.20;40.80;;;;;;5071009;28;47170;-28
2022/04/14 06:05:47;;;;;;;1.95;1.55;;;20.20;40.90;;;;;;5070637;28;47592;-27
2022/04/14 06:08:14;;;;;;;1.58;1.40;;;20.20;40.80;;;;;;5070840;28;46836;-27
2022/04/14 06:10:41;;;;;;;1.50;1.40;;;20.20;40.90;;;;;;5070942;28;46966;-27
2022/04/14 06:13:07;;;;;;;2.33;1.60;;;20.20;40.90;;;;;;5071181;28;46939;-14
2022/04/14 06:15:35;;;;;;;2.10;1.80;;;20.20;40.80;;;;;;5070960;28;47723;-27
2022/04/14 06:18:02;;;;;;;2.50;1.50;;;20.20;40.80;;;;;;5068863;28;47052;-28
2022/04/14 06:20:29;;;;;;;2.15;1.63;;;20.20;40.80;;;;;;5067267;28;46967;-15
2022/04/14 06:22:58;;;;;;;2.83;1.33;;;20.20;40.80;;;;;;5067726;28;47299;-15
2022/04/14 06:25:25;;;;;;;2.55;1.63;;;20.20;40.80;;;;;;5067553;28;48005;-19
2022/04/14 06:27:53;;;;;;;2.10;1.70;;;20.20;40.80;;;;;;5067401;28;46749;-28
2022/04/14 06:30:20;;;;;;;2.83;1.52;;;20.20;40.80;;;;;;5067641;28;46870;-15
2022/04/14 06:32:57;;;;;;;2.45;1.42;;;20.20;40.80;;;;;;5067266;28;46934;-15
2022/04/14 06:35:23;;;;;;;1.98;1.55;;;20.20;40.70;;;;;;5067476;28;46980;-28
2022/04/14 06:37:50;;;;;;;2.47;1.73;;;20.20;40.80;;;;;;5066990;28;47192;-15
2022/04/14 06:40:17;;;;;;;2.28;1.67;;;20.20;40.70;;;;;;5066589;28;47046;-15
2022/04/14 06:42:44;;;;;;;1.63;1.52;;;20.20;41.00;;;;;;5066807;28;46986;-28
2022/04/14 06:45:10;;;;;;;3.65;1.35;;;20.20;41.00;;;;;;5066823;28;48881;-27
2022/04/14 06:47:37;;;;;;;2.28;1.70;;;20.20;42.50;;;;;;5066900;28;47048;-28
2022/04/14 06:50:06;;;;;;;2.75;1.45;;;20.40;42.10;;;;;;5070364;28;46931;-27
2022/04/14 06:52:33;;;;;;;12.90;2.03;;;20.50;41.90;;;;;;5066273;28;46976;-15
2022/04/14 06:55:00;;;;;;;2.58;1.80;;;20.60;41.20;;;;;;5066156;28;49184;-15
2022/04/14 06:57:26;;;;;;;2.15;1.58;;;20.60;40.70;;;;;;5066295;28;46876;-14
2022/04/14 06:59:53;;;;;;;1.75;1.48;;;20.70;40.70;;;;;;5066155;28;46922;-14
2022/04/14 07:02:20;;;;;;;2.10;1.50;;;20.70;40.70;;;;;;5067131;28;46871;-14
2022/04/14 07:04:47;;;;;;;3.13;1.65;;;20.80;40.70;;;;;;5066391;28;47839;-15
2022/04/14 07:07:15;;;;;;;2.60;1.83;;;20.80;40.40;;;;;;5065998;28;47019;-15
2022/04/14 07:09:41;;;;;;;1.70;1.60;;;20.90;40.50;;;;;;5067146;28;46977;-15
2022/04/14 07:12:10;;;;;;;3.90;1.77;;;20.90;40.40;;;;;;5066597;28;46891;-15
2022/04/14 07:14:38;;;;;;;2.15;1.50;;;20.90;40.30;;;;;;5066277;28;48144;-14
2022/04/14 07:17:05;;;;;;;4.30;1.50;;;21.00;40.20;;;;;;5066361;28;47100;-15
2022/04/14 07:19:32;;;;;;;4.13;2.13;;;21.00;40.20;;;;;;5065621;28;46934;-15
2022/04/14 07:21:59;;;;;;;4.10;1.45;;;21.10;40.10;;;;;;5067037;28;47158;-15
2022/04/14 07:24:27;;;;;;;4.68;1.75;;;21.10;40.00;;;;;;5066066;28;46956;-14
2022/04/14 07:26:54;;;;;;;4.55;1.90;;;21.10;40.00;;;;;;5065995;28;47337;-29
2022/04/14 07:29:21;;;;;;;5.22;2.13;;;21.10;40.00;;;;;;5065478;28;47148;-15
2022/04/14 07:31:49;;;;;;;4.57;2.00;;;21.10;41.30;;;;;;5066552;28;46906;-15
2022/04/14 07:34:16;;;;;;;6.68;2.50;;;21.10;42.10;;;;;;5066040;28;48184;-15
2022/04/14 07:36:44;;;;;;;8.57;2.72;;;21.10;42.20;;;;;;5066095;28;47171;-14
2022/04/14 07:39:10;;;;;;;7.25;2.20;;;21.10;42.80;;;;;;5065940;28;46915;-14
2022/04/14 07:41:39;;;;;;;3.75;2.38;;;21.10;42.80;;;;;;5065835;28;46852;-14
2022/04/14 07:44:06;;;;;;;8.40;2.33;;;21.10;42.50;;;;;;5065961;28;48112;-26
2022/04/14 07:46:35;;;;;;;4.43;1.85;;;21.10;43.00;;;;;;5060762;28;46898;-26
2022/04/14 07:49:02;;;;;;;4.45;2.17;;;21.10;43.10;;;;;;5066058;28;46922;-26
2022/04/14 07:51:30;;;;;;;4.18;2.60;;;21.10;43.30;;;;;;5064193;28;47053;-25
2022/04/14 07:53:56;;;;;;;5.85;2.78;;;21.10;43.70;;;;;;5064953;28;47158;-16
2022/04/14 07:56:23;;;;;;;8.40;3.50;;;21.10;44.00;;;;;;5065257;28;46879;-30
2022/04/14 07:58:51;;;;;;;9.40;3.45;;;21.10;44.50;;;;;;5064475;28;46880;-15
2022/04/14 08:01:19;;;;;;;6.25;3.70;;;21.20;44.50;;;;;;5063940;28;47283;-15
2022/04/14 08:03:46;;;;;;;8.93;3.75;;;21.20;44.60;;;;;;5064078;28;48549;-25
2022/04/14 08:06:14;;;;;;;10.05;3.30;;;21.30;44.60;;;;;;5064338;28;46963;-24
2022/04/14 08:08:40;;;;;;;6.28;3.30;;;21.30;44.60;;;;;;5064296;28;46981;-25
2022/04/14 08:11:08;;;;;;;6.40;3.00;;;21.40;44.60;;;;;;5065426;28;47016;-25
2022/04/14 08:13:38;;;;;;;4.22;3.00;;;21.40;44.50;;;;;;5065049;28;47015;-25
2022/04/14 08:16:06;;;;;;;6.57;3.58;;;21.40;44.60;;;;;;5065891;28;47008;-15
2022/04/14 08:18:35;;;;;;;6.43;3.17;;;21.50;44.70;;;;;;5065657;28;46986;-16
2022/04/14 08:21:02;;;;;;;4.20;3.10;;;21.50;44.70;;;;;;5065821;28;47058;-15
2022/04/14 08:23:29;;;;;;;9.43;3.88;;;21.50;44.70;;;;;;5064526;28;47122;-15
2022/04/14 08:25:55;;;;;;;6.97;3.78;;;21.60;44.90;;;;;;5065046;28;46916;-15
2022/04/14 08:28:22;;;;;;;7.95;4.25;;;21.60;44.90;;;;;;5065345;28;47007;-15
2022/04/14 08:30:49;;;;;;;7.30;4.30;;;21.70;44.70;;;;;;5064927;28;46995;-15
2022/04/14 08:33:20;;;;;;;5.72;3.33;;;21.70;44.80;;;;;;5063446;28;47022;-15
2022/04/14 08:35:47;;;;;;;6.90;3.50;;;21.70;44.90;;;;;;5064810;28;46919;-15
2022/04/14 08:38:14;;;;;;;10.38;3.75;;;21.70;44.90;;;;;;5064771;28;46947;-15
2022/04/14 08:40:41;;;;;;;9.85;3.75;;;21.70;44.90;;;;;;5064935;28;47011;-15
2022/04/14 08:43:09;;;;;;;10.38;4.00;;;21.70;45.10;;;;;;5063161;28;46755;-15
2022/04/14 08:45:37;;;;;;;7.05;4.38;;;21.70;45.10;;;;;;5064575;28;47019;-15
2022/04/14 08:48:05;;;;;;;10.73;3.97;;;21.70;45.20;;;;;;5064665;28;46804;-14
2022/04/14 08:50:33;;;;;;;7.72;4.30;;;21.70;45.30;;;;;;5063862;28;47111;-15
2022/04/14 08:53:00;;;;;;;12.23;4.40;;;21.80;45.30;;;;;;5064147;28;47842;-14
2022/04/14 08:55:27;;;;;;;6.35;3.30;;;21.80;45.40;;;;;;5052204;28;47080;-14
2022/04/14 08:57:54;;;;;;;5.65;3.72;;;21.80;44.90;;;;;;5045011;28;46732;-14
2022/04/14 09:00:21;;;;;;;7.57;3.60;;;21.80;44.60;;;;;;5045983;28;47183;-15
2022/04/14 09:02:49;;;;;;;10.68;3.65;;;21.80;44.70;;;;;;5045113;28;47081;-14
2022/04/14 09:05:17;;;;;;;11.57;3.72;;;21.80;44.70;;;;;;5045203;28;47158;-15
2022/04/14 09:07:47;;;;;;;7.68;3.60;;;21.80;44.60;;;;;;5063868;28;47410;-14
2022/04/14 09:10:14;;;;;;;6.88;3.42;;;21.80;44.50;;;;;;5066607;28;47014;-14
2022/04/14 09:12:41;;;;;;;5.13;2.70;;;21.80;44.30;;;;;;5065806;28;48027;-24
2022/04/14 09:15:09;;;;;;;3.40;2.13;;;21.80;44.20;;;;;;5064500;28;46923;-24
2022/04/14 09:17:37;;;;;;;6.07;2.38;;;21.80;44.00;;;;;;5065003;28;46996;-15
2022/04/14 09:20:28;;;;;;;6.82;2.40;;;21.80;44.00;;;;;;5064481;28;46997;-24
2022/04/14 09:25:49;;;;;;;5.18;2.60;;;21.80;44.10;;;;;;5132622;27;46915;-23
2022/04/14 09:28:17;;;;;;;4.65;2.30;;;21.80;43.90;;;;;;5122919;27;46810;-23
2022/04/14 09:30:58;;;;;;;5.55;2.50;;;21.80;43.90;;;;;;5123572;27;47240;-23
2022/04/14 09:33:26;;;;;;;5.28;2.28;;;21.90;43.80;;;;;;5122939;27;47950;-23
2022/04/14 09:36:13;;;;;;;7.68;2.20;;;21.90;43.70;;;;;;5123425;27;47201;-23
2022/04/14 09:38:49;;;;;;;5.60;2.60;;;21.90;43.60;;;;;;5123060;27;46880;-23
2022/04/14 09:41:32;;;;;;;3.80;2.42;;;21.90;43.50;;;;;;5123323;27;47260;-23
2022/04/14 09:43:59;;;;;;;4.25;2.40;;;21.90;43.10;;;;;;5122978;27;48000;-13
2022/04/14 09:46:26;;;;;;;6.03;2.35;;;22.00;43.10;;;;;;5122936;27;46876;-13
2022/04/14 09:49:08;;;;;;;4.40;2.42;;;22.10;43.00;;;;;;5122777;27;47070;-13
2022/04/14 09:51:36;;;;;;;4.97;2.15;;;22.10;42.60;;;;;;5123088;27;46986;-13
2022/04/14 09:54:06;;;;;;;3.83;2.17;;;22.10;43.00;;;;;;5122840;27;48109;-13
2022/04/14 09:56:48;;;;;;;3.65;2.10;;;22.10;42.70;;;;;;5123287;27;46818;-13
2022/04/14 09:59:16;;;;;;;4.18;2.00;;;22.20;42.70;;;;;;5122719;27;47114;-13
2022/04/14 10:01:42;;;;;;;4.55;2.13;;;22.20;42.60;;;;;;5122888;27;46891;-13
2022/04/14 10:04:14;;;;;;;3.53;2.08;;;22.30;42.60;;;;;;5122520;27;48879;-13
2022/04/14 10:06:42;;;;;;;5.13;2.10;;;22.30;42.70;;;;;;5122660;27;47003;-14
2022/04/14 10:09:10;;;;;;;4.07;2.20;;;22.30;42.60;;;;;;5122735;27;47024;-13
2022/04/14 10:11:37;;;;;;;4.32;2.13;;;22.40;42.60;;;;;;5122943;27;46953;-13
2022/04/14 10:14:12;;;;;;;2.20;1.80;;;22.40;42.50;;;;;;5122387;27;49169;-13
2022/04/14 10:16:39;;;;;;;2.90;2.10;;;22.40;42.50;;;;;;5122322;27;46887;-13
2022/04/14 10:19:06;;;;;;;3.88;2.10;;;22.50;42.70;;;;;;5122313;27;47185;-13
2022/04/14 10:21:34;;;;;;;2.92;1.65;;;22.50;42.40;;;;;;5122614;27;46942;-13
2022/04/14 10:24:01;;;;;;;5.97;2.40;;;22.60;42.50;;;;;;5121683;27;48264;-13
2022/04/14 10:26:28;;;;;;;2.85;2.05;;;22.60;42.30;;;;;;5122145;27;47103;-13
2022/04/14 10:28:55;;;;;;;4.80;1.90;;;22.70;42.40;;;;;;5122433;27;46888;-14
2022/04/14 10:31:24;;;;;;;3.45;1.80;;;22.70;42.30;;;;;;5122514;27;46846;-13
2022/04/14 10:33:50;;;;;;;2.33;1.88;;;22.80;42.10;;;;;;5121827;27;48807;-14
2022/04/14 10:36:17;;;;;;;2.75;1.80;;;22.80;42.00;;;;;;5112981;27;46900;-14
2022/04/14 10:38:45;;;;;;;5.10;2.35;;;22.90;41.90;;;;;;5107997;27;46869;-15
2022/04/14 10:41:15;;;;;;;2.85;1.80;;;22.90;41.90;;;;;;5108411;27;46914;-13
2022/04/14 10:43:42;;;;;;;3.35;2.00;;;23.00;41.90;;;;;;5087451;28;48407;-14
2022/04/14 10:46:09;;;;;;;3.75;1.70;;;23.00;41.70;;;;;;5087462;28;47453;-14
2022/04/14 10:48:39;;;;;;;3.92;1.83;;;23.10;41.70;;;;;;5087696;28;46920;-13
2022/04/14 10:51:20;;;;;;;2.55;2.00;;;23.20;41.60;;;;;;5087985;28;46874;-14
2022/04/14 10:53:50;;;;;;;2.30;1.70;;;23.20;41.40;;;;;;5087190;28;48722;-13
2022/04/14 10:56:57;;;;;;;2.92;1.95;;;23.30;41.40;;;;;;5087755;28;46869;-23
2022/04/14 10:59:48;;;;;;;2.90;2.15;;;23.30;41.20;;;;;;5082154;27;46995;-13
2022/04/14 11:02:17;;;;;;;5.13;2.20;;;23.40;41.10;;;;;;5094629;27;46883;-14
2022/04/14 11:04:52;;;;;;;4.03;2.08;;;23.50;41.00;;;;;;5107636;27;47857;-23
2022/04/14 11:07:20;;;;;;;2.35;1.65;;;23.60;41.00;;;;;;5107738;27;47384;-23
2022/04/14 11:09:52;;;;;;;2.30;2.10;;;23.60;40.90;;;;;;5107976;27;46972;-14
2022/04/14 11:12:19;;;;;;;4.07;1.70;;;23.70;40.80;;;;;;5108303;27;47085;-14
2022/04/14 11:14:48;;;;;;;2.45;1.73;;;23.80;40.70;;;;;;5107700;27;46893;-23
2022/04/14 11:17:52;;;;;;;3.75;2.33;;;23.80;40.60;;;;;;5108197;27;47150;-14
2022/04/14 11:20:22;;;;;;;3.25;1.90;;;23.90;40.60;;;;;;5107631;27;46976;-23
2022/04/14 11:23:05;;;;;;;4.38;2.33;;;24.00;40.50;;;;;;5107776;27;46923;-22
2022/04/14 11:25:45;;;;;;;2.40;2.10;;;24.00;40.30;;;;;;5107099;27;47075;-23
2022/04/14 11:28:30;;;;;;;4.57;2.10;;;24.10;40.20;;;;;;5107650;27;47142;-13
2022/04/14 11:30:57;;;;;;;4.05;2.05;;;24.20;40.10;;;;;;5107544;27;46969;-23
2022/04/14 11:33:33;;;;;;;4.18;2.20;;;24.20;40.00;;;;;;5107561;27;47180;-23
2022/04/14 11:36:09;;;;;;;2.50;1.90;;;24.20;39.90;;;;;;5107603;27;47960;-23
2022/04/14 11:39:01;;;;;;;3.10;2.00;;;24.30;39.80;;;;;;5107463;27;46969;-13
2022/04/14 11:41:38;;;;;;;2.28;2.00;;;24.40;40.10;;;;;;5107605;27;46915;-23
2022/04/14 11:44:06;;;;;;;2.70;1.85;;;24.40;39.90;;;;;;5107548;27;47018;-23
2022/04/14 11:46:33;;;;;;;4.90;2.55;;;24.50;39.90;;;;;;5107305;27;47661;-14
2022/04/14 11:49:00;;;;;;;4.93;2.30;;;24.60;39.90;;;;;;5106340;27;46899;-14
2022/04/14 11:51:28;;;;;;;6.07;2.33;;;24.60;40.30;;;;;;5107485;27;46834;-14
2022/04/14 11:53:56;;;;;;;5.25;2.63;;;24.60;40.20;;;;;;5107375;27;47114;-14
2022/04/14 11:56:23;;;;;;;3.53;2.75;;;24.70;40.20;;;;;;5107322;27;47981;-14
2022/04/14 11:58:50;;;;;;;5.10;2.47;;;24.70;39.90;;;;;;5107419;27;47404;-14
2022/04/14 12:01:17;;;;;;;4.70;2.63;;;24.70;39.60;;;;;;5107183;27;46809;-14
2022/04/14 12:03:44;;;;;;;5.07;2.30;;;24.80;39.80;;;;;;5100987;27;47261;-14
2022/04/14 12:06:14;;;;;;;6.07;2.17;;;24.80;39.90;;;;;;5104395;27;47864;-23
2022/04/14 12:08:42;;;;;;;2.42;2.22;;;24.90;40.00;;;;;;5104754;27;46875;-23
2022/04/14 12:11:12;;;;;;;3.38;2.30;;;24.90;39.70;;;;;;5105968;27;46999;-23
2022/04/14 12:13:39;;;;;;;4.30;2.25;;;24.90;39.60;;;;;;5106358;27;46872;-14
2022/04/14 12:16:07;;;;;;;3.53;2.30;;;25.00;39.50;;;;;;5106143;27;48102;-23
2022/04/14 12:18:34;;;;;;;4.93;2.90;;;25.00;39.60;;;;;;5106251;27;47161;-23
2022/04/14 12:21:01;;;;;;;4.68;2.50;;;25.10;39.50;;;;;;5105906;27;46994;-22
2022/04/14 12:23:27;;;;;;;3.67;2.25;;;25.10;39.50;;;;;;5105711;27;47312;-14
2022/04/14 12:25:57;;;;;;;4.45;2.50;;;25.20;39.50;;;;;;5106557;27;47809;-13
2022/04/14 12:28:24;;;;;;;3.67;2.30;;;25.20;39.40;;;;;;5106408;27;46861;-23
2022/04/14 12:30:51;;;;;;;3.83;2.58;;;25.20;39.30;;;;;;5106669;27;46892;-22
2022/04/14 12:33:25;;;;;;;3.80;2.15;;;25.30;39.20;;;;;;5106479;27;47094;-14
2022/04/14 12:35:52;;;;;;;4.38;2.40;;;25.30;39.10;;;;;;5106531;27;48238;-14
2022/04/14 12:38:21;;;;;;;3.17;2.38;;;25.30;39.10;;;;;;5106134;27;46878;-13
2022/04/14 12:40:56;;;;;;;5.32;2.97;;;25.40;39.00;;;;;;5110230;27;47007;-23
2022/04/14 12:43:23;;;;;;;5.25;2.28;;;25.40;39.00;;;;;;5115220;27;47256;-23
2022/04/14 12:45:50;;;;;;;3.42;2.40;;;25.40;39.00;;;;;;5117827;27;47050;-14
2022/04/14 12:48:26;;;;;;;4.55;2.50;;;25.50;38.90;;;;;;5105409;27;46951;-23
2022/04/14 12:50:57;;;;;;;4.88;2.10;;;25.50;39.00;;;;;;5106274;27;46889;-14
2022/04/14 12:53:25;;;;;;;4.30;2.10;;;25.50;39.00;;;;;;5105554;27;47131;-15
2022/04/14 12:55:52;;;;;;;2.33;2.13;;;25.60;39.20;;;;;;5105770;27;48363;-14